Gil Vicente — CSKG — position and weather

sailwx.info

Track history (hours):
 
Tides and Currents Weather Stations Pressure Air Temp Water Temp Dewpoint Dewpoint Depression Visibility Wind Speed Wind Dir Waves Ship Positions

Gil Vicente

Last reported at 2016-Dec-06 11:33 UTC. Time now 2016-Dec-06 12:13 UTC.
Position N 38°39' W 009°05'.

Length 49 m.

Type: Passenger vessel. MMSI: 263701390.

Date/timePositionNaut miles runAvg speedWind from/ knotsBaromVisibWave heightAir tempDewpointWater temp
2016-Dec-06 11:33N 38°39' W 009°05'0 0.0
2016-Dec-06 10:34N 38°39' W 009°05'0 0.0
2016-Dec-06 09:34N 38°39' W 009°05'0 0.1
2016-Dec-06 08:33N 38°39' W 009°05'1 1.0
2016-Dec-06 07:34N 38°39' W 009°06'1 0.1
2016-Dec-05 21:12N 38°39' W 009°05'3 4.7
2016-Dec-05 20:33N 38°41' W 009°08'1 1.3
2016-Dec-05 19:33N 38°40' W 009°07'2 2.4
2016-Dec-05 18:33N 38°42' W 009°08'0 0.3
2016-Dec-05 17:33N 38°42' W 009°08'1 1.2
2016-Dec-05 16:32N 38°41' W 009°08'3 3.1
2016-Dec-05 15:33N 38°39' W 009°05'1 0.7
2016-Dec-05 14:30N 38°39' W 009°06'0 0.3
2016-Dec-05 13:32N 38°39' W 009°06'0 0.1
2016-Dec-05 12:33N 38°40' W 009°06'0 0.5
2016-Dec-05 11:30N 38°39' W 009°06'1 0.6
2016-Dec-05 10:33N 38°39' W 009°05'0 0.0
2016-Dec-05 09:33N 38°39' W 009°05'0 0.1
2016-Dec-05 08:33N 38°39' W 009°05'2 1.6
2016-Dec-05 07:33N 38°40' W 009°06'1 1.5
2016-Dec-05 06:33N 38°39' W 009°05'  
2016-Dec-02 21:08N 38°39' W 009°05'3 5.8
2016-Dec-02 20:34N 38°42' W 009°08'2 2.3
2016-Dec-02 19:33N 38°40' W 009°06'3 2.8
2016-Dec-02 18:33N 38°42' W 009°08'0 0.3
2016-Dec-02 17:33N 38°42' W 009°08'1 0.8
2016-Dec-02 16:34N 38°42' W 009°08'3 3.4
2016-Dec-02 15:33N 38°39' W 009°05'2 1.5
2016-Dec-02 14:32N 38°40' W 009°06'0 0.2
2016-Dec-02 13:33N 38°40' W 009°06'0 0.2
2016-Dec-02 12:34N 38°40' W 009°06'0 0.4
2016-Dec-02 11:33N 38°39' W 009°06'1 1.0
2016-Dec-02 10:33N 38°39' W 009°05'0 0.0
2016-Dec-02 09:33N 38°39' W 009°05'0 0.1
2016-Dec-02 08:33N 38°39' W 009°05'1 1.4
2016-Dec-02 07:34N 38°40' W 009°06'1 1.4
2016-Dec-02 06:34N 38°39' W 009°05'0 0.0
2016-Nov-30 21:23N 38°39' W 009°05'3 4.0
2016-Nov-30 20:33N 38°41' W 009°08'3 2.6
2016-Nov-30 19:33N 38°39' W 009°06'3 3.1
2016-Nov-30 18:33N 38°42' W 009°08'0 0.3
2016-Nov-30 17:33N 38°42' W 009°08'1 1.1
2016-Nov-30 16:33N 38°41' W 009°08'3 3.3
2016-Nov-30 15:33N 38°39' W 009°05'2 1.8
2016-Nov-30 14:33N 38°40' W 009°07'1 0.7
2016-Nov-30 13:33N 38°40' W 009°06'2 0.6
2016-Nov-30 10:33N 38°41' W 009°08'3 2.9
2016-Nov-30 09:33N 38°39' W 009°05'1 1.3
2016-Nov-30 08:33N 38°40' W 009°06'3 3.0
2016-Nov-30 07:32N 38°42' W 009°08'0 0.2
2016-Nov-30 06:33N 38°42' W 009°08'0 0.0
2016-Nov-30 05:33N 38°42' W 009°08'4 1.3
2016-Nov-30 02:24N 38°39' W 009°05'0 0.0
2016-Nov-30 01:33N 38°39' W 009°05'0 0.0
2016-Nov-30 00:33N 38°39' W 009°05'0 0.2
2016-Nov-29 23:33N 38°39' W 009°05'2 1.5
2016-Nov-29 22:33N 38°40' W 009°07'0 0.2
2016-Nov-29 21:33N 38°40' W 009°07'2 1.8
2016-Nov-29 20:33N 38°41' W 009°08'2 2.1
2016-Nov-29 19:33N 38°40' W 009°06'3 2.9
2016-Nov-29 18:33N 38°42' W 009°08'0 0.2
2016-Nov-29 17:33N 38°42' W 009°08'1 1.2
2016-Nov-29 16:33N 38°41' W 009°08'3 3.2
2016-Nov-29 15:33N 38°39' W 009°05'0 0.0
2016-Nov-28 21:18N 38°39' W 009°05'3 4.3
2016-Nov-28 20:33N 38°41' W 009°08'2 2.1
2016-Nov-28 19:33N 38°40' W 009°06'3 3.0
2016-Nov-28 18:33N 38°42' W 009°08'0 0.1
2016-Nov-28 17:33N 38°42' W 009°08'2 1.8
2016-Nov-28 16:33N 38°41' W 009°08'3 2.7
2016-Nov-28 15:33N 38°39' W 009°05'1 1.1
2016-Nov-28 14:33N 38°40' W 009°06'0 0.4
2016-Nov-28 13:33N 38°40' W 009°06'0 0.3
2016-Nov-28 12:33N 38°40' W 009°06'0 0.4
2016-Nov-28 11:33N 38°40' W 009°06'2 1.6
2016-Nov-28 10:33N 38°39' W 009°05'0 0.0
2016-Nov-28 09:33N 38°39' W 009°05'0 0.0
2016-Nov-28 08:33N 38°39' W 009°05'1 1.2
2016-Nov-28 07:33N 38°40' W 009°06'1 1.1
2016-Nov-28 06:33N 38°39' W 009°05'  
Track history (hours):
 
Tides and Currents Weather Stations Pressure Air Temp Water Temp Dewpoint Dewpoint Depression Visibility Wind Speed Wind Dir Waves Ship Positions

Gil Vicente

Last reported at 2016-Dec-06 11:33 UTC. Time now 2016-Dec-06 12:13 UTC.
Position N 38°39' W 009°05'.

Length 49 m.

Type: Passenger vessel. MMSI: 263701390.

Date/timePositionNaut miles runAvg speedWind from/ knotsBaromVisibWave heightAir tempDewpointWater temp
2016-Dec-06 11:33N 38°39' W 009°05'0 0.0
2016-Dec-06 10:34N 38°39' W 009°05'0 0.0
2016-Dec-06 09:34N 38°39' W 009°05'0 0.1
2016-Dec-06 08:33N 38°39' W 009°05'1 1.0
2016-Dec-06 07:34N 38°39' W 009°06'1 0.1
2016-Dec-05 21:12N 38°39' W 009°05'3 4.7
2016-Dec-05 20:33N 38°41' W 009°08'1 1.3
2016-Dec-05 19:33N 38°40' W 009°07'2 2.4
2016-Dec-05 18:33N 38°42' W 009°08'0 0.3
2016-Dec-05 17:33N 38°42' W 009°08'1 1.2
2016-Dec-05 16:32N 38°41' W 009°08'3 3.1
2016-Dec-05 15:33N 38°39' W 009°05'1 0.7
2016-Dec-05 14:30N 38°39' W 009°06'0 0.3
2016-Dec-05 13:32N 38°39' W 009°06'0 0.1
2016-Dec-05 12:33N 38°40' W 009°06'0 0.5
2016-Dec-05 11:30N 38°39' W 009°06'1 0.6
2016-Dec-05 10:33N 38°39' W 009°05'0 0.0
2016-Dec-05 09:33N 38°39' W 009°05'0 0.1
2016-Dec-05 08:33N 38°39' W 009°05'2 1.6
2016-Dec-05 07:33N 38°40' W 009°06'1 1.5
2016-Dec-05 06:33N 38°39' W 009°05'  
2016-Dec-02 21:08N 38°39' W 009°05'3 5.8
2016-Dec-02 20:34N 38°42' W 009°08'2 2.3
2016-Dec-02 19:33N 38°40' W 009°06'3 2.8
2016-Dec-02 18:33N 38°42' W 009°08'0 0.3
2016-Dec-02 17:33N 38°42' W 009°08'1 0.8
2016-Dec-02 16:34N 38°42' W 009°08'3 3.4
2016-Dec-02 15:33N 38°39' W 009°05'2 1.5
2016-Dec-02 14:32N 38°40' W 009°06'0 0.2
2016-Dec-02 13:33N 38°40' W 009°06'0 0.2
2016-Dec-02 12:34N 38°40' W 009°06'0 0.4
2016-Dec-02 11:33N 38°39' W 009°06'1 1.0
2016-Dec-02 10:33N 38°39' W 009°05'0 0.0
2016-Dec-02 09:33N 38°39' W 009°05'0 0.1
2016-Dec-02 08:33N 38°39' W 009°05'1 1.4
2016-Dec-02 07:34N 38°40' W 009°06'1 1.4
2016-Dec-02 06:34N 38°39' W 009°05'0 0.0
2016-Nov-30 21:23N 38°39' W 009°05'3 4.0
2016-Nov-30 20:33N 38°41' W 009°08'3 2.6
2016-Nov-30 19:33N 38°39' W 009°06'3 3.1
2016-Nov-30 18:33N 38°42' W 009°08'0 0.3
2016-Nov-30 17:33N 38°42' W 009°08'1 1.1
2016-Nov-30 16:33N 38°41' W 009°08'3 3.3
2016-Nov-30 15:33N 38°39' W 009°05'2 1.8
2016-Nov-30 14:33N 38°40' W 009°07'1 0.7
2016-Nov-30 13:33N 38°40' W 009°06'2 0.6
2016-Nov-30 10:33N 38°41' W 009°08'3 2.9
2016-Nov-30 09:33N 38°39' W 009°05'1 1.3
2016-Nov-30 08:33N 38°40' W 009°06'3 3.0
2016-Nov-30 07:32N 38°42' W 009°08'0 0.2
2016-Nov-30 06:33N 38°42' W 009°08'0 0.0
2016-Nov-30 05:33N 38°42' W 009°08'4 1.3
2016-Nov-30 02:24N 38°39' W 009°05'0 0.0
2016-Nov-30 01:33N 38°39' W 009°05'0 0.0
2016-Nov-30 00:33N 38°39' W 009°05'0 0.2
2016-Nov-29 23:33N 38°39' W 009°05'2 1.5
2016-Nov-29 22:33N 38°40' W 009°07'0 0.2
2016-Nov-29 21:33N 38°40' W 009°07'2 1.8
2016-Nov-29 20:33N 38°41' W 009°08'2 2.1
2016-Nov-29 19:33N 38°40' W 009°06'3 2.9
2016-Nov-29 18:33N 38°42' W 009°08'0 0.2
2016-Nov-29 17:33N 38°42' W 009°08'1 1.2
2016-Nov-29 16:33N 38°41' W 009°08'3 3.2
2016-Nov-29 15:33N 38°39' W 009°05'0 0.0
2016-Nov-28 21:18N 38°39' W 009°05'3 4.3
2016-Nov-28 20:33N 38°41' W 009°08'2 2.1
2016-Nov-28 19:33N 38°40' W 009°06'3 3.0
2016-Nov-28 18:33N 38°42' W 009°08'0 0.1
2016-Nov-28 17:33N 38°42' W 009°08'2 1.8
2016-Nov-28 16:33N 38°41' W 009°08'3 2.7
2016-Nov-28 15:33N 38°39' W 009°05'1 1.1
2016-Nov-28 14:33N 38°40' W 009°06'0 0.4
2016-Nov-28 13:33N 38°40' W 009°06'0 0.3
2016-Nov-28 12:33N 38°40' W 009°06'0 0.4
2016-Nov-28 11:33N 38°40' W 009°06'2 1.6
2016-Nov-28 10:33N 38°39' W 009°05'0 0.0
2016-Nov-28 09:33N 38°39' W 009°05'0 0.0
2016-Nov-28 08:33N 38°39' W 009°05'1 1.2
2016-Nov-28 07:33N 38°40' W 009°06'1 1.1
2016-Nov-28 06:33N 38°39' W 009°05'  

Dump ship's entire track history